Time;durP1;ratioP1;P1;durP2;ratioP2;P2;SDS_P1;SDS_P2;PMS_P1;PMS_P2;Temp;Humidity;BMP_temperature;BMP_pressure;BME280_temperature;BME280_humidity;BME280_pressure;Samples;Min_cycle;Max_cycle;Signal;HPM_P1;HPM_P2
2022/09/08 00:00:46;;;;;;;2.60;1.00;;;22.30;99.90;;;;;;5033486;28;20173;-78
2022/09/08 00:03:14;;;;;;;3.27;1.97;;;22.30;99.90;;;;;;5033096;28;20600;-78
2022/09/08 00:05:48;;;;;;;3.10;1.23;;;22.20;99.90;;;;;;5036750;28;21114;-79
2022/09/08 00:08:20;;;;;;;2.10;1.30;;;22.20;99.90;;;;;;5033579;28;20572;-78
2022/09/08 00:10:48;;;;;;;4.57;1.20;;;22.20;99.90;;;;;;5031958;28;20672;-78
2022/09/08 00:13:14;;;;;;;2.20;1.13;;;22.20;99.90;;;;;;5033407;28;20636;-78
2022/09/08 00:15:40;;;;;;;2.47;1.00;;;22.20;99.90;;;;;;5033798;28;20575;-78
2022/09/08 00:18:06;;;;;;;3.40;1.17;;;22.20;99.90;;;;;;5033494;28;20655;-78
2022/09/08 00:20:33;;;;;;;3.17;1.30;;;22.20;99.90;;;;;;5033279;28;20568;-78
2022/09/08 00:22:59;;;;;;;2.63;1.10;;;22.10;99.90;;;;;;5016155;28;20971;-78
2022/09/08 00:25:26;;;;;;;3.67;1.00;;;22.10;99.90;;;;;;5032874;28;20579;-78
2022/09/08 00:27:51;;;;;;;2.80;1.00;;;22.10;99.90;;;;;;5033215;28;20572;-79
2022/09/08 00:30:17;;;;;;;3.03;1.17;;;22.10;99.90;;;;;;5033222;28;20576;-78
2022/09/08 00:32:43;;;;;;;2.00;1.03;;;22.10;99.90;;;;;;5033114;28;20699;-78
2022/09/08 00:35:14;;;;;;;3.30;1.27;;;22.10;99.90;;;;;;5033155;28;20177;-78
2022/09/08 00:37:43;;;;;;;2.70;1.20;;;22.10;99.90;;;;;;5033278;28;20232;-78
2022/09/08 00:40:09;;;;;;;4.13;1.30;;;22.00;99.90;;;;;;5032694;28;20907;-78
2022/09/08 00:42:35;;;;;;;2.00;0.87;;;22.00;99.90;;;;;;5032517;28;21192;-78
2022/09/08 00:45:01;;;;;;;2.27;1.00;;;22.00;99.90;;;;;;5033323;28;20584;-75
2022/09/08 00:47:30;;;;;;;2.90;1.00;;;22.00;99.90;;;;;;5032624;28;20172;-75
2022/09/08 00:50:09;;;;;;;2.10;1.00;;;22.00;99.90;;;;;;5032327;28;20518;-75
2022/09/08 00:53:00;;;;;;;2.53;1.20;;;22.00;99.90;;;;;;5032461;28;20643;-75
2022/09/08 00:55:32;;;;;;;3.37;1.20;;;21.90;99.90;;;;;;5031531;28;20584;-75
2022/09/08 00:57:58;;;;;;;4.33;1.00;;;22.00;99.90;;;;;;5032687;28;20556;-75
2022/09/08 01:00:24;;;;;;;3.43;1.20;;;22.00;99.90;;;;;;5031544;28;21008;-75
2022/09/08 01:02:50;;;;;;;4.00;0.90;;;22.00;99.90;;;;;;5032273;28;20694;-75
2022/09/08 01:05:20;;;;;;;4.90;1.20;;;22.00;99.90;;;;;;5032446;28;20682;-75
2022/09/08 01:13:25;;;;;;;2.70;0.87;;;21.90;99.90;;;;;;5032095;28;21004;-75
2022/09/08 01:15:51;;;;;;;3.87;1.30;;;21.90;99.90;;;;;;5032239;28;21118;-75
2022/09/08 01:18:17;;;;;;;1.97;1.33;;;21.90;99.90;;;;;;5032183;28;20561;-75
2022/09/08 01:21:25;;;;;;;3.40;1.40;;;21.90;99.90;;;;;;5031957;28;21183;-75
2022/09/08 01:24:07;;;;;;;1.90;1.00;;;21.90;99.90;;;;;;5031905;28;20291;-75
2022/09/08 01:26:41;;;;;;;2.20;1.17;;;21.90;99.90;;;;;;5032005;28;20621;-75
2022/09/08 01:29:09;;;;;;;1.50;0.90;;;21.90;99.90;;;;;;5030897;28;20608;-75
2022/09/08 01:31:39;;;;;;;3.27;1.07;;;21.90;99.90;;;;;;5031852;28;20599;-75
2022/09/08 01:34:05;;;;;;;1.90;1.10;;;21.90;99.90;;;;;;5031613;28;20710;-75
2022/09/08 01:36:31;;;;;;;1.80;0.90;;;21.90;99.90;;;;;;5031987;28;20639;-75
2022/09/08 01:38:56;;;;;;;3.97;1.33;;;21.90;99.90;;;;;;5031800;28;20576;-75
2022/09/08 01:41:22;;;;;;;2.13;0.77;;;21.90;99.90;;;;;;5031465;28;20169;-75
2022/09/08 01:43:48;;;;;;;2.03;1.00;;;21.90;99.90;;;;;;5031684;28;20192;-75
2022/09/08 01:46:14;;;;;;;2.93;1.20;;;21.90;99.90;;;;;;5031624;28;20165;-75
2022/09/08 01:48:39;;;;;;;4.13;1.00;;;21.90;99.90;;;;;;5031662;28;20178;-75
2022/09/08 01:51:07;;;;;;;2.23;1.00;;;21.90;99.90;;;;;;5022161;28;20170;-74
2022/09/08 01:53:34;;;;;;;1.87;0.83;;;21.90;99.90;;;;;;5026133;28;20212;-75
2022/09/08 01:56:00;;;;;;;2.00;1.00;;;21.90;99.90;;;;;;5031674;28;20611;-75
2022/09/08 01:58:26;;;;;;;2.77;1.17;;;21.90;99.90;;;;;;5031629;28;20565;-75
2022/09/08 02:00:52;;;;;;;1.90;1.10;;;21.90;99.90;;;;;;5013474;28;20575;-75
2022/09/08 02:03:18;;;;;;;1.50;0.80;;;21.90;99.90;;;;;;5031289;28;20645;-75
2022/09/08 02:05:44;;;;;;;2.43;1.10;;;21.90;99.90;;;;;;5031554;28;20618;-75
2022/09/08 02:08:11;;;;;;;2.07;0.93;;;21.90;99.90;;;;;;5031284;28;20603;-75
2022/09/08 02:10:38;;;;;;;3.60;1.00;;;21.90;99.90;;;;;;5030830;28;20572;-75
2022/09/08 02:13:05;;;;;;;1.80;0.80;;;21.90;99.90;;;;;;5030316;28;21243;-75
2022/09/08 02:15:31;;;;;;;2.03;1.00;;;22.00;99.90;;;;;;5031473;28;20577;-75
2022/09/08 02:17:58;;;;;;;1.93;1.10;;;22.00;99.90;;;;;;5013894;28;20675;-75
2022/09/08 02:20:24;;;;;;;3.20;1.20;;;22.00;99.90;;;;;;5031053;28;20556;-75
2022/09/08 02:22:53;;;;;;;1.70;1.00;;;22.00;99.90;;;;;;5031271;28;20648;-75
2022/09/08 02:25:20;;;;;;;2.23;1.20;;;22.00;99.90;;;;;;5031433;28;20629;-75
2022/09/08 02:27:46;;;;;;;2.80;0.90;;;22.00;99.90;;;;;;5031264;28;20576;-75
2022/09/08 02:30:12;;;;;;;3.10;1.17;;;21.90;99.90;;;;;;5030832;28;20938;-75
2022/09/08 02:32:38;;;;;;;3.83;1.20;;;21.90;99.90;;;;;;5030764;28;20238;-73
2022/09/08 02:35:04;;;;;;;2.70;1.10;;;21.90;99.90;;;;;;5031136;28;20624;-74
2022/09/08 02:37:30;;;;;;;2.67;1.10;;;21.80;99.90;;;;;;5031171;28;20654;-74
2022/09/08 02:39:56;;;;;;;2.60;1.13;;;21.80;99.90;;;;;;5030735;28;20596;-74
2022/09/08 02:42:23;;;;;;;2.83;1.07;;;21.80;99.90;;;;;;5031058;28;20165;-74
2022/09/08 02:44:48;;;;;;;1.70;0.97;;;21.70;99.90;;;;;;5031005;28;20174;-74
2022/09/08 02:47:14;;;;;;;2.13;0.90;;;21.70;99.90;;;;;;5030865;28;20591;-74
2022/09/08 02:49:40;;;;;;;1.80;1.27;;;21.60;99.90;;;;;;5030849;28;20532;-74
2022/09/08 02:52:05;;;;;;;4.10;1.50;;;21.60;99.90;;;;;;5013200;28;20191;-74
2022/09/08 02:54:31;;;;;;;5.50;1.67;;;21.50;99.90;;;;;;5030810;28;20218;-74
2022/09/08 02:56:57;;;;;;;3.50;1.50;;;21.40;99.90;;;;;;5031080;28;20260;-74
2022/09/08 02:59:23;;;;;;;3.90;1.70;;;21.30;99.90;;;;;;5030746;28;20589;-74
2022/09/08 03:01:49;;;;;;;2.20;1.67;;;21.10;99.90;;;;;;5029822;28;20197;-75
2022/09/08 03:04:16;;;;;;;4.33;1.90;;;21.00;99.90;;;;;;5030842;28;20600;-75
2022/09/08 03:06:43;;;;;;;2.50;1.90;;;20.80;99.90;;;;;;5030997;28;20181;-75
2022/09/08 03:09:09;;;;;;;2.00;1.70;;;20.70;99.90;;;;;;5031134;28;20573;-75
2022/09/08 03:11:34;;;;;;;4.27;2.07;;;20.60;99.90;;;;;;5030486;28;20626;-75
2022/09/08 03:14:01;;;;;;;3.40;2.30;;;20.50;99.90;;;;;;5030828;28;20620;-75
2022/09/08 03:16:27;;;;;;;4.20;2.07;;;20.40;99.90;;;;;;5030826;28;20208;-75
2022/09/08 03:18:54;;;;;;;3.13;2.00;;;20.30;99.90;;;;;;5030972;28;20603;-75
2022/09/08 03:21:20;;;;;;;3.40;2.13;;;20.30;99.90;;;;;;5030599;28;20970;-75
2022/09/08 03:23:46;;;;;;;3.40;2.00;;;20.20;99.90;;;;;;5032688;28;20592;-75
2022/09/08 03:26:17;;;;;;;2.57;2.37;;;20.10;99.90;;;;;;5033127;28;20607;-75
2022/09/08 03:28:44;;;;;;;2.83;2.20;;;20.10;99.90;;;;;;5034302;28;21178;-75
2022/09/08 03:31:12;;;;;;;3.20;2.30;;;20.00;99.90;;;;;;5020942;28;21317;-75
2022/09/08 03:33:38;;;;;;;4.20;2.60;;;19.80;99.90;;;;;;5029357;28;20710;-75
2022/09/08 03:36:07;;;;;;;7.80;2.80;;;19.70;99.90;;;;;;5034258;28;20663;-75
2022/09/08 03:38:34;;;;;;;4.60;2.80;;;19.60;99.90;;;;;;5033963;28;20660;-75
2022/09/08 03:41:03;;;;;;;4.10;2.77;;;19.60;99.90;;;;;;5033777;28;20634;-75
2022/09/08 03:43:29;;;;;;;3.97;2.67;;;19.50;99.90;;;;;;5033653;28;21025;-75
2022/09/08 03:45:56;;;;;;;4.80;2.70;;;19.50;99.90;;;;;;5033877;28;20556;-75
2022/09/08 03:48:22;;;;;;;3.53;2.70;;;19.50;99.90;;;;;;5033925;28;20693;-75
2022/09/08 03:50:48;;;;;;;2.90;2.30;;;19.60;99.90;;;;;;5032387;28;21157;-75
2022/09/08 03:53:13;;;;;;;4.10;2.73;;;19.60;99.90;;;;;;5033724;28;20604;-75
2022/09/08 03:55:41;;;;;;;5.17;2.20;;;19.60;99.90;;;;;;5033805;28;20204;-75
2022/09/08 03:58:08;;;;;;;3.37;2.83;;;19.60;99.90;;;;;;5033744;28;20173;-75
2022/09/08 04:00:35;;;;;;;3.03;2.53;;;19.60;99.90;;;;;;5033569;28;21417;-75
2022/09/08 04:03:00;;;;;;;2.70;2.40;;;19.50;99.90;;;;;;5033524;28;20686;-75
2022/09/08 04:05:26;;;;;;;2.97;2.40;;;19.40;99.90;;;;;;5033653;28;20569;-75
2022/09/08 04:07:52;;;;;;;2.90;2.50;;;19.40;99.90;;;;;;5033653;28;20656;-75
2022/09/08 04:10:19;;;;;;;3.77;2.80;;;19.40;99.90;;;;;;5033558;28;20560;-74
2022/09/08 04:13:03;;;;;;;4.57;2.00;;;19.40;99.90;;;;;;5033745;28;20199;-74
2022/09/08 04:15:29;;;;;;;2.97;1.73;;;19.30;99.90;;;;;;5033393;28;20569;-74
2022/09/08 04:17:55;;;;;;;4.60;1.97;;;19.30;99.90;;;;;;5033332;28;20193;-75
2022/09/08 04:20:20;;;;;;;3.33;2.17;;;19.30;99.90;;;;;;5033202;28;20181;-74
2022/09/08 04:22:46;;;;;;;2.83;1.60;;;19.20;99.90;;;;;;5033019;28;20197;-74
2022/09/08 04:25:13;;;;;;;2.97;2.20;;;19.20;99.90;;;;;;5033342;28;20178;-74
2022/09/08 04:27:38;;;;;;;3.40;1.90;;;19.20;99.90;;;;;;5033220;28;20260;-74
2022/09/08 04:30:05;;;;;;;3.77;2.00;;;19.10;99.90;;;;;;5033004;28;20660;-74
2022/09/08 04:32:30;;;;;;;3.23;2.00;;;19.10;99.90;;;;;;5032947;28;20173;-73
2022/09/08 04:34:56;;;;;;;4.43;1.83;;;19.10;99.90;;;;;;5031975;28;20611;-74
2022/09/08 04:37:22;;;;;;;2.50;1.63;;;19.10;99.90;;;;;;5033049;28;20173;-74
2022/09/08 04:39:49;;;;;;;2.63;1.77;;;19.10;99.90;;;;;;5033070;28;20173;-75
2022/09/08 04:42:15;;;;;;;2.97;2.03;;;19.10;99.90;;;;;;4998538;28;20726;-74
2022/09/08 04:44:40;;;;;;;3.40;1.60;;;19.10;99.90;;;;;;5032960;28;20679;-74
2022/09/08 04:47:06;;;;;;;2.10;1.70;;;19.10;99.90;;;;;;5033127;28;20177;-75
2022/09/08 04:49:32;;;;;;;2.80;1.97;;;19.20;99.90;;;;;;5032925;28;20165;-75
2022/09/08 04:51:58;;;;;;;5.27;1.80;;;19.10;99.90;;;;;;5033138;28;20201;-75
2022/09/08 04:54:23;;;;;;;2.27;1.40;;;19.10;99.90;;;;;;5006170;28;20240;-74
2022/09/08 04:56:49;;;;;;;4.17;2.20;;;19.10;99.90;;;;;;5021256;28;20198;-75
2022/09/08 04:59:16;;;;;;;2.63;2.10;;;19.10;99.90;;;;;;5013014;28;20547;-75
2022/09/08 05:01:42;;;;;;;3.53;1.83;;;19.10;99.90;;;;;;5013093;28;20667;-75
2022/09/08 05:04:09;;;;;;;4.67;2.57;;;19.10;99.90;;;;;;5012651;28;20683;-75
2022/09/08 05:06:35;;;;;;;4.00;2.03;;;19.10;99.90;;;;;;5018807;28;20189;-75
2022/09/08 05:09:02;;;;;;;4.40;2.27;;;19.10;99.90;;;;;;5005035;28;20581;-74
2022/09/08 05:11:31;;;;;;;5.63;2.53;;;19.10;99.90;;;;;;5017893;28;20571;-75
2022/09/08 05:13:57;;;;;;;3.97;2.20;;;19.10;99.90;;;;;;5005437;28;21003;-75
2022/09/08 05:16:25;;;;;;;3.63;1.90;;;19.00;99.90;;;;;;5012632;28;20569;-74
2022/09/08 05:18:57;;;;;;;3.43;1.77;;;19.00;99.90;;;;;;4995027;28;20790;-74
2022/09/08 05:21:23;;;;;;;2.57;1.40;;;19.00;99.90;;;;;;5012214;28;20573;-75
2022/09/08 05:23:51;;;;;;;2.70;1.77;;;19.00;99.90;;;;;;5011234;28;21291;-75
2022/09/08 05:26:17;;;;;;;2.93;1.70;;;19.00;99.90;;;;;;4994803;28;20700;-75
2022/09/08 05:28:43;;;;;;;2.87;1.57;;;18.90;99.90;;;;;;4979062;28;21001;-75
2022/09/08 05:31:16;;;;;;;5.83;1.87;;;19.00;99.90;;;;;;5012536;28;21118;-75
2022/09/08 05:33:42;;;;;;;5.53;2.17;;;19.00;99.90;;;;;;5014267;28;20621;-74
2022/09/08 05:36:11;;;;;;;2.50;1.70;;;19.00;99.90;;;;;;5027431;28;20925;-75
2022/09/08 05:38:38;;;;;;;3.40;1.83;;;19.10;99.90;;;;;;5020593;28;20557;-75
2022/09/08 05:41:04;;;;;;;2.87;2.00;;;19.10;99.90;;;;;;5014729;28;20681;-75
2022/09/08 05:43:29;;;;;;;4.60;2.07;;;19.10;99.90;;;;;;5016717;28;20715;-74
2022/09/08 05:45:55;;;;;;;5.93;1.83;;;19.10;99.90;;;;;;5011988;28;20575;-75
2022/09/08 05:48:21;;;;;;;3.20;2.30;;;19.20;99.90;;;;;;5012017;28;20254;-75
2022/09/08 05:50:47;;;;;;;3.00;2.00;;;19.20;99.90;;;;;;5012073;28;20171;-75
2022/09/08 05:53:14;;;;;;;3.90;2.27;;;19.20;99.90;;;;;;5012007;28;20194;-74
2022/09/08 05:55:40;;;;;;;3.87;2.90;;;19.20;99.90;;;;;;5012003;28;20174;-74
2022/09/08 05:58:13;;;;;;;7.57;2.90;;;19.20;99.90;;;;;;5019787;28;21176;-74
2022/09/08 06:00:39;;;;;;;3.20;2.60;;;19.30;99.90;;;;;;5011823;28;20576;-75
2022/09/08 06:03:04;;;;;;;4.40;3.23;;;19.30;99.90;;;;;;5011672;28;21003;-75
2022/09/08 06:05:34;;;;;;;4.77;3.43;;;19.30;99.90;;;;;;5011824;28;20259;-74
2022/09/08 06:07:59;;;;;;;3.60;3.20;;;19.30;99.90;;;;;;4994257;28;20171;-74
2022/09/08 06:10:25;;;;;;;3.33;3.00;;;19.30;99.90;;;;;;5011476;28;20557;-74
2022/09/08 06:12:51;;;;;;;5.63;3.13;;;19.30;99.90;;;;;;4993859;28;20233;-74
2022/09/08 06:15:17;;;;;;;4.27;3.20;;;19.30;99.90;;;;;;4994057;28;20189;-74
2022/09/08 06:17:43;;;;;;;3.77;2.90;;;19.30;99.90;;;;;;5011563;28;21103;-74
2022/09/08 06:20:09;;;;;;;3.70;3.20;;;19.40;99.90;;;;;;5011456;28;20169;-74
2022/09/08 06:22:35;;;;;;;7.30;2.93;;;19.40;99.90;;;;;;5011196;28;20997;-75
2022/09/08 06:25:01;;;;;;;4.20;3.40;;;19.40;99.90;;;;;;5011657;28;20562;-74
2022/09/08 06:27:33;;;;;;;4.23;3.60;;;19.40;99.90;;;;;;5011542;28;20257;-75
2022/09/08 06:30:16;;;;;;;4.60;2.77;;;19.50;99.90;;;;;;5011297;28;20572;-75
2022/09/08 06:32:57;;;;;;;2.73;2.13;;;19.50;99.90;;;;;;5011214;28;20602;-75
2022/09/08 06:35:28;;;;;;;4.30;2.77;;;19.50;99.90;;;;;;4994009;28;20604;-74
2022/09/08 06:37:57;;;;;;;3.07;2.20;;;19.50;99.90;;;;;;5011446;28;20557;-74
2022/09/08 06:40:39;;;;;;;5.27;2.80;;;19.50;99.90;;;;;;5011154;28;20661;-74
2022/09/08 06:43:32;;;;;;;3.13;2.50;;;19.50;99.90;;;;;;5011146;28;20725;-75
2022/09/08 06:46:04;;;;;;;4.37;2.27;;;19.50;99.90;;;;;;5011417;28;20577;-75
2022/09/08 06:48:35;;;;;;;3.70;2.50;;;19.60;99.90;;;;;;5022440;23;20664;-75
2022/09/08 06:51:31;;;;;;;3.20;2.90;;;19.60;99.90;;;;;;4972104;28;20596;-77
2022/09/08 06:54:09;;;;;;;3.60;2.20;;;19.60;99.90;;;;;;4971659;28;20670;-77
2022/09/08 06:56:53;;;;;;;5.10;2.87;;;19.60;99.90;;;;;;4966865;28;20574;-77
2022/09/08 06:59:40;;;;;;;3.90;2.40;;;19.60;99.90;;;;;;4996493;28;20675;-78
2022/09/08 07:02:24;;;;;;;3.20;2.47;;;19.70;99.90;;;;;;4997486;28;20576;-78
2022/09/08 07:05:19;;;;;;;3.17;2.37;;;19.80;99.90;;;;;;4997447;28;20600;-78
2022/09/08 07:08:06;;;;;;;3.50;2.43;;;19.80;99.90;;;;;;5014946;28;20628;-77
2022/09/08 07:10:38;;;;;;;2.80;2.13;;;19.80;99.90;;;;;;5013477;28;20627;-77
2022/09/08 07:13:35;;;;;;;3.70;1.83;;;19.90;99.90;;;;;;5014603;28;20580;-77
2022/09/08 07:16:28;;;;;;;3.23;2.17;;;19.90;99.90;;;;;;5013440;28;20592;-76
2022/09/08 07:19:11;;;;;;;2.93;1.93;;;19.90;99.90;;;;;;5014718;28;21183;-77
2022/09/08 07:21:55;;;;;;;3.17;2.40;;;19.80;99.90;;;;;;4997156;28;20565;-76
2022/09/08 07:24:29;;;;;;;3.50;2.53;;;19.80;99.90;;;;;;5014755;28;20576;-77
2022/09/08 07:26:58;;;;;;;3.50;1.53;;;19.80;99.90;;;;;;4997114;28;20604;-77
2022/09/08 07:29:36;;;;;;;3.60;2.27;;;19.80;99.90;;;;;;4980551;28;20565;-77
2022/09/08 07:32:02;;;;;;;4.30;2.10;;;19.70;99.90;;;;;;4996936;28;20573;-77
2022/09/08 07:34:33;;;;;;;4.93;2.33;;;19.70;99.90;;;;;;4997020;28;20964;-77
2022/09/08 07:37:12;;;;;;;2.90;2.00;;;19.70;99.90;;;;;;4997058;28;20935;-77
2022/09/08 07:39:40;;;;;;;3.40;1.80;;;19.60;99.90;;;;;;4980505;28;20573;-77
2022/09/08 07:42:12;;;;;;;2.77;1.20;;;19.60;99.90;;;;;;5014338;28;20561;-77
2022/09/08 07:44:39;;;;;;;3.50;1.90;;;19.60;99.90;;;;;;5014425;28;20576;-78
2022/09/08 07:47:41;;;;;;;5.83;1.13;;;19.60;99.90;;;;;;4996501;28;21113;-77
2022/09/08 07:50:19;;;;;;;1.90;1.00;;;19.50;99.90;;;;;;5014153;28;20576;-77
2022/09/08 07:53:20;;;;;;;2.10;0.90;;;19.50;99.90;;;;;;5014502;28;21309;-77
2022/09/08 07:55:46;;;;;;;1.93;1.00;;;19.50;99.90;;;;;;5014435;28;20572;-77
2022/09/08 07:58:44;;;;;;;1.80;0.83;;;19.50;99.90;;;;;;5014698;28;20596;-77
2022/09/08 08:01:22;;;;;;;2.57;1.10;;;19.60;99.90;;;;;;4996792;28;20899;-77
2022/09/08 08:04:19;;;;;;;1.87;0.80;;;19.60;99.90;;;;;;4999094;28;20636;-77
2022/09/08 08:06:49;;;;;;;1.60;0.80;;;19.70;99.90;;;;;;5014491;28;20561;-76
2022/09/08 08:09:55;;;;;;;1.30;0.70;;;19.90;99.90;;;;;;5018779;28;20567;-77
2022/09/08 08:13:15;;;;;;;1.67;0.70;;;20.40;99.90;;;;;;5013962;28;20727;-78
2022/09/08 08:15:47;;;;;;;1.50;0.70;;;21.00;99.90;;;;;;4996264;28;20561;-78
2022/09/08 08:18:32;;;;;;;1.53;0.60;;;21.40;99.90;;;;;;5013648;28;20612;-78
2022/09/08 08:21:32;;;;;;;1.60;0.60;;;21.60;99.90;;;;;;4995835;28;20577;-77
2022/09/08 08:24:01;;;;;;;1.40;0.60;;;21.80;99.90;;;;;;5013153;28;20656;-77
2022/09/08 08:26:58;;;;;;;3.53;0.60;;;21.90;99.90;;;;;;5013785;28;20573;-77
2022/09/08 08:29:33;;;;;;;1.60;0.60;;;22.00;99.90;;;;;;5012518;28;20585;-77
2022/09/08 08:32:14;;;;;;;3.10;0.60;;;22.10;99.90;;;;;;5013538;28;20561;-77
2022/09/08 08:34:53;;;;;;;3.77;0.80;;;22.20;99.90;;;;;;5013752;28;20584;-77
2022/09/08 08:37:23;;;;;;;2.03;0.70;;;22.70;99.90;;;;;;5013977;28;20697;-77
2022/09/08 08:39:53;;;;;;;1.73;0.70;;;23.40;99.90;;;;;;5011913;28;21138;-77
2022/09/08 08:42:33;;;;;;;2.60;0.80;;;24.20;99.90;;;;;;5013291;28;20675;-77
2022/09/08 08:45:09;;;;;;;1.40;0.70;;;25.30;99.90;;;;;;4980100;28;20577;-76
2022/09/08 08:47:57;;;;;;;2.97;0.70;;;26.30;99.90;;;;;;5019208;28;20608;-76
2022/09/08 08:50:48;;;;;;;1.50;0.60;;;27.40;99.90;;;;;;5015045;28;20564;-77
2022/09/08 08:53:47;;;;;;;1.60;0.60;;;28.30;99.90;;;;;;5021026;28;20561;-77
2022/09/08 08:56:34;;;;;;;1.47;0.50;;;28.90;99.90;;;;;;4996334;28;21161;-77
2022/09/08 08:59:21;;;;;;;1.40;0.57;;;29.60;99.90;;;;;;5013420;28;20644;-77
2022/09/08 09:02:26;;;;;;;2.53;0.73;;;30.10;99.90;;;;;;4995577;28;20557;-77
2022/09/08 09:04:54;;;;;;;2.60;0.70;;;30.70;99.90;;;;;;5013032;28;20574;-76
2022/09/08 09:07:32;;;;;;;1.90;0.70;;;31.20;99.90;;;;;;4999813;28;20622;-77
2022/09/08 09:10:35;;;;;;;1.60;0.60;;;31.50;99.90;;;;;;4993989;28;20598;-77
2022/09/08 09:13:21;;;;;;;1.90;0.57;;;31.40;99.90;;;;;;4993042;28;21031;-77
2022/09/08 09:15:54;;;;;;;1.57;0.67;;;30.80;99.90;;;;;;4975944;28;20602;-77
2022/09/08 09:18:32;;;;;;;2.77;0.70;;;30.30;99.90;;;;;;4993210;28;20597;-77
2022/09/08 09:21:11;;;;;;;2.43;0.83;;;30.30;99.90;;;;;;4975116;28;20558;-77
2022/09/08 09:24:10;;;;;;;2.27;0.83;;;30.10;99.90;;;;;;4991667;28;20660;-77
2022/09/08 09:26:35;;;;;;;3.43;0.90;;;29.60;99.90;;;;;;4992904;28;20566;-77
2022/09/08 09:29:09;;;;;;;2.23;1.20;;;29.50;99.90;;;;;;4992823;28;20677;-77
2022/09/08 09:32:01;;;;;;;2.57;1.00;;;29.80;99.90;;;;;;4991453;28;20203;-77
2022/09/08 09:34:39;;;;;;;2.87;1.00;;;29.80;99.90;;;;;;4992790;28;20711;-76
2022/09/08 09:37:39;;;;;;;2.30;0.60;;;30.00;99.90;;;;;;4991611;28;21028;-76
2022/09/08 09:40:36;;;;;;;2.10;0.70;;;30.00;99.90;;;;;;5002436;28;20673;-76
2022/09/08 09:43:23;;;;;;;1.63;0.60;;;30.10;99.90;;;;;;4994647;28;20672;-77
2022/09/08 09:46:00;;;;;;;1.90;0.70;;;30.40;99.90;;;;;;5012345;28;20569;-77
2022/09/08 09:48:41;;;;;;;1.73;0.80;;;30.30;99.80;;;;;;5014715;28;20617;-77
2022/09/08 09:51:07;;;;;;;1.70;0.80;;;30.00;99.10;;;;;;5011827;28;20564;-76
2022/09/08 09:54:02;;;;;;;3.10;1.00;;;29.50;98.90;;;;;;5012002;28;20574;-76
2022/09/08 09:56:48;;;;;;;1.77;1.17;;;29.20;98.70;;;;;;5012349;28;20177;-76
2022/09/08 09:59:47;;;;;;;2.83;1.10;;;28.80;98.70;;;;;;5010418;28;20939;-76
2022/09/08 10:02:31;;;;;;;2.23;1.10;;;28.60;99.50;;;;;;4994053;28;20565;-76
2022/09/08 10:05:19;;;;;;;3.20;1.27;;;28.30;99.50;;;;;;5010604;28;20977;-76
2022/09/08 10:08:06;;;;;;;2.50;1.03;;;28.20;99.60;;;;;;5010471;28;20594;-76
2022/09/08 10:10:44;;;;;;;2.60;0.93;;;28.00;99.30;;;;;;5011387;28;20576;-76
2022/09/08 10:13:22;;;;;;;1.67;0.80;;;27.80;99.70;;;;;;5011580;28;20660;-77
2022/09/08 10:16:35;;;;;;;4.07;1.37;;;27.60;99.40;;;;;;5011624;28;20874;-77
2022/09/08 10:19:22;;;;;;;2.13;0.93;;;27.40;99.90;;;;;;5002924;28;20671;-77
2022/09/08 10:22:26;;;;;;;2.23;0.70;;;27.30;99.90;;;;;;5011870;28;20688;-76
2022/09/08 10:25:06;;;;;;;3.10;1.30;;;27.20;99.90;;;;;;5011652;28;20667;-76
2022/09/08 10:27:50;;;;;;;1.40;0.70;;;27.30;99.60;;;;;;5011662;28;20628;-76
2022/09/08 10:30:20;;;;;;;2.10;1.00;;;27.60;99.90;;;;;;5011424;28;20568;-77
2022/09/08 10:33:07;;;;;;;1.50;0.80;;;27.80;99.90;;;;;;4994530;28;20562;-77
2022/09/08 10:35:46;;;;;;;1.60;0.70;;;27.90;99.20;;;;;;5015674;28;20564;-77
2022/09/08 10:38:50;;;;;;;1.93;0.80;;;28.10;99.20;;;;;;5015666;28;20585;-77
2022/09/08 10:41:16;;;;;;;1.80;0.70;;;28.50;99.70;;;;;;4969834;28;20666;-77
2022/09/08 10:44:10;;;;;;;1.47;0.50;;;29.10;99.90;;;;;;5007911;28;20627;-78
2022/09/08 10:46:45;;;;;;;2.13;0.60;;;29.40;97.30;;;;;;5003921;28;20167;-77
2022/09/08 10:49:58;;;;;;;2.57;0.70;;;29.50;97.30;;;;;;4994584;28;20652;-77
2022/09/08 10:52:48;;;;;;;2.13;1.43;;;29.50;95.80;;;;;;4978355;28;20677;-77
2022/09/08 10:55:32;;;;;;;3.50;1.50;;;29.50;95.30;;;;;;4994359;28;20693;-77
2022/09/08 10:58:23;;;;;;;2.43;1.70;;;29.40;95.70;;;;;;4995249;28;20626;-77
2022/09/08 11:01:23;;;;;;;5.03;3.30;;;29.30;94.90;;;;;;5003325;28;20616;-77
2022/09/08 11:04:08;;;;;;;3.73;2.33;;;29.40;95.90;;;;;;4995363;28;21198;-77
2022/09/08 11:06:57;;;;;;;3.07;1.30;;;29.80;96.60;;;;;;4995441;28;20669;-77
2022/09/08 11:09:29;;;;;;;2.73;0.80;;;30.40;96.60;;;;;;4995227;28;20575;-77
2022/09/08 11:12:21;;;;;;;2.63;0.90;;;31.00;97.80;;;;;;4993948;28;21137;-76
2022/09/08 11:15:11;;;;;;;1.97;1.20;;;31.30;94.30;;;;;;4995355;28;20607;-76
2022/09/08 11:17:49;;;;;;;2.13;1.20;;;31.60;93.80;;;;;;4995095;28;20600;-77
2022/09/08 11:20:50;;;;;;;2.57;1.20;;;32.00;93.10;;;;;;4993578;28;20573;-77
2022/09/08 11:23:33;;;;;;;2.47;1.40;;;32.30;91.70;;;;;;4994883;28;20635;-76
2022/09/08 11:26:02;;;;;;;3.40;1.40;;;32.30;90.00;;;;;;4995019;28;20566;-77
2022/09/08 11:28:53;;;;;;;3.50;2.07;;;32.10;86.60;;;;;;4994850;28;21062;-76
2022/09/08 11:31:32;;;;;;;3.10;1.87;;;31.70;84.80;;;;;;4977247;28;20577;-77
2022/09/08 11:34:23;;;;;;;1.87;1.13;;;31.30;83.50;;;;;;4995105;28;20668;-77
2022/09/08 11:36:51;;;;;;;2.53;1.00;;;30.80;83.20;;;;;;4995245;28;21117;-77
2022/09/08 11:40:01;;;;;;;1.70;0.80;;;30.20;80.80;;;;;;4994720;28;20594;-77
2022/09/08 11:42:56;;;;;;;1.83;0.90;;;29.60;81.00;;;;;;4915534;29;20636;-78
2022/09/08 11:45:29;;;;;;;4.20;1.80;;;28.80;82.30;;;;;;4913394;29;20637;-77
2022/09/08 11:48:21;;;;;;;2.60;1.00;;;28.20;82.20;;;;;;4971091;28;21294;-77
2022/09/08 11:51:02;;;;;;;1.50;0.60;;;27.60;83.70;;;;;;4994510;28;20570;-77
2022/09/08 11:53:58;;;;;;;1.83;0.50;;;27.20;84.50;;;;;;4994584;28;20677;-76
2022/09/08 11:56:57;;;;;;;1.40;0.43;;;26.80;85.60;;;;;;4994659;28;20570;-76
2022/09/08 11:59:42;;;;;;;1.40;0.40;;;26.40;86.60;;;;;;4976875;28;20619;-76
2022/09/08 12:02:19;;;;;;;2.40;0.50;;;26.20;89.60;;;;;;4994356;28;20656;-77
2022/09/08 12:05:11;;;;;;;1.43;0.40;;;26.30;91.50;;;;;;4994447;28;20665;-77
2022/09/08 12:07:40;;;;;;;1.40;0.60;;;26.60;93.40;;;;;;4994795;28;21011;-77
2022/09/08 12:10:25;;;;;;;1.10;0.40;;;27.20;94.70;;;;;;4994293;28;20577;-76
2022/09/08 12:13:00;;;;;;;1.90;0.97;;;27.70;94.70;;;;;;4994433;28;20632;-76
2022/09/08 12:15:51;;;;;;;1.40;0.50;;;28.30;94.60;;;;;;4994376;28;20602;-77
2022/09/08 12:18:35;;;;;;;2.03;0.60;;;28.90;94.00;;;;;;4994432;28;20709;-77
2022/09/08 12:21:07;;;;;;;2.27;0.50;;;29.40;94.30;;;;;;4994191;28;20648;-77
2022/09/08 12:23:48;;;;;;;3.83;0.50;;;29.70;92.30;;;;;;4976663;28;21002;-77
2022/09/08 12:26:42;;;;;;;1.20;0.40;;;30.00;91.50;;;;;;4993123;28;20930;-78
2022/09/08 12:29:40;;;;;;;1.43;0.50;;;30.20;89.10;;;;;;4976880;28;20657;-78
2022/09/08 12:32:09;;;;;;;2.37;0.60;;;30.20;86.90;;;;;;4993929;28;20570;-77
2022/09/08 12:34:53;;;;;;;1.40;0.50;;;30.20;86.90;;;;;;4993854;28;20589;-77
2022/09/08 12:37:24;;;;;;;1.70;0.40;;;30.20;83.70;;;;;;4993990;28;20633;-78
2022/09/08 12:40:28;;;;;;;1.40;0.50;;;30.40;85.00;;;;;;4992383;28;20562;-78
2022/09/08 12:43:15;;;;;;;1.30;0.40;;;30.50;85.00;;;;;;4976544;28;20618;-78
2022/09/08 12:46:11;;;;;;;1.33;0.33;;;30.60;81.40;;;;;;4994829;28;20952;-78
2022/09/08 12:49:19;;;;;;;1.33;0.40;;;30.60;81.20;;;;;;4994870;28;21040;-75
2022/09/08 12:51:49;;;;;;;1.30;0.40;;;30.50;79.90;;;;;;4993584;28;21008;-75
2022/09/08 12:54:21;;;;;;;1.20;0.40;;;30.50;77.90;;;;;;4993529;28;20575;-76
2022/09/08 12:57:19;;;;;;;2.53;0.70;;;30.20;75.80;;;;;;4992752;28;21229;-76
2022/09/08 13:00:01;;;;;;;3.57;1.20;;;29.90;73.60;;;;;;4993134;28;20746;-76
2022/09/08 13:03:13;;;;;;;2.20;0.83;;;29.60;73.20;;;;;;4993267;28;20618;-77
2022/09/08 13:05:48;;;;;;;2.00;0.60;;;29.30;72.80;;;;;;4975271;28;20602;-77
2022/09/08 13:08:25;;;;;;;1.90;0.60;;;28.90;71.00;;;;;;4993124;28;20617;-77
2022/09/08 13:10:58;;;;;;;2.17;0.90;;;28.70;71.10;;;;;;4992967;28;20926;-77
2022/09/08 13:13:30;;;;;;;2.33;0.97;;;28.40;71.20;;;;;;4975914;28;21134;-77
2022/09/08 13:16:23;;;;;;;2.53;0.80;;;28.20;71.00;;;;;;4993038;28;20605;-77
2022/09/08 13:19:10;;;;;;;1.93;0.60;;;28.00;70.50;;;;;;4992950;28;20613;-77
2022/09/08 13:21:39;;;;;;;3.00;0.70;;;27.90;70.60;;;;;;4975520;28;20647;-77
2022/09/08 13:24:14;;;;;;;2.00;0.70;;;27.70;70.60;;;;;;4992798;28;20630;-77
2022/09/08 13:26:55;;;;;;;3.27;1.20;;;27.60;69.90;;;;;;4991724;28;20577;-77
2022/09/08 13:29:33;;;;;;;2.47;1.10;;;27.40;70.00;;;;;;4992477;28;20594;-78
2022/09/08 13:32:17;;;;;;;3.83;1.00;;;27.30;70.80;;;;;;4992872;28;20566;-77
2022/09/08 13:34:52;;;;;;;2.00;0.90;;;27.20;71.10;;;;;;4992743;28;20665;-77
2022/09/08 13:37:45;;;;;;;1.70;0.50;;;27.20;70.90;;;;;;4992947;28;20598;-77